Longstreet, Louisiana
Current Conditions -  °F | °C
As of 3:56 PM on Monday 22 Dec 2014 (Local Time) from KSHV Reporting Station
Broken Clouds Broken Clouds  
Wind Chill: 69°   Ceiling: 3200
Heat Index: 69°   Visibility: 10mi
Dew Point: 56°   Wind: 10mph
Humidity: 63%   Direction: 210°SSW
Pressure: 29.55"   Gusts: NA
Location:  32.1°N, 93.95°W
Report Text: KSHV 222156Z 21009KT 10SM BKN032 21/13 A2955 RMK AO2 SLP005 T02060133
Loading
Personal Weather Stations






























Interactive Weather Map New forecast layout! Learn more

10-Day Weather Forecast

Advertisements
Track Severe Weather on mobile